M I D A S
Marine Information and Data Acquisition System
Tripno 599 of the Zeeleeuw from 2003-09-26 07:01:59 to 2003-09-26 15:27:12
Back to CruiseResearch ActivitiesStationsMapUnderway DataData graphs

EquipmentUnitsComment
TimeDGPSUTC
LatitudeDGPSDM.mWGS84
LongitudeDGPSDM.mWGS84
HeadingGyrodeg 
SOGDGPSknotsSpeed over ground
COGDGPSdegCourse over ground
DepthEcho soundermeters200 kHz
Missing or incorrect values are displayed as -999
Navigation data collected by the RV Zeeleeuw from 2003-09-26 07:01:59 to 2003-09-26 15:27:12
Time Latitude Longitude Heading SOG COG Depth
2003-09-26 07:03:01 51°13.7 2°55.77 92.6 2.4 273 -999
2003-09-26 07:04:01 51°13.7 2°55.75 56.8 0.9 41 12.9
2003-09-26 07:05:02 51°13.73 2°55.75 348.4 2.8 338 9.8
2003-09-26 07:06:01 51°13.79 2°55.67 325.1 6.3 321 10
2003-09-26 07:07:01 51°13.9 2°55.58 339.2 7.6 335 10
2003-09-26 07:08:01 51°14.02 2°55.5 341.5 7.9 337 9.7
2003-09-26 07:09:01 51°14.14 2°55.41 337.1 7.9 333 10
2003-09-26 07:10:01 51°14.25 2°55.27 318.6 9 314 10.1
2003-09-26 07:11:01 51°14.35 2°55.08 313.6 9.7 310 10.1
2003-09-26 07:11:59 51°14.45 2°54.88 319.5 10.4 309 9.6
2003-09-26 07:13:01 51°14.59 2°54.7 342.5 10.7 332 8.9
2003-09-26 07:14:01 51°14.76 2°54.59 348.1 10.9 338 8.7
2003-09-26 07:15:01 51°14.93 2°54.49 348.4 10.9 340 8.1
2003-09-26 07:16:01 51°15.1 2°54.4 353.1 10.7 344 7.6
2003-09-26 07:17:01 51°15.27 2°54.4 20.4 10.2 13 8.1
2003-09-26 07:18:01 51°15.44 2°54.44 13.3 10.4 4 8.6
2003-09-26 07:19:01 51°15.61 2°54.43 3.5 10.5 353 9
2003-09-26 07:20:01 51°15.79 2°54.39 1.5 10.6 350 9.7
2003-09-26 07:21:01 51°15.95 2°54.28 336.2 11.1 325 10.3
2003-09-26 07:22:01 51°16.06 2°54.15 356.3 6 346 10.9
2003-09-26 07:23:01 51°16.13 2°54.18 36 3.2 27 11
2003-09-26 07:24:01 51°16.17 2°54.21 35.3 3.1 27 11.1
2003-09-26 07:25:01 51°16.21 2°54.25 36 2.4 25 11.2
2003-09-26 07:26:01 51°16.24 2°54.27 30.6 1.5 14 11.1
2003-09-26 07:27:01 51°16.24 2°54.26 23.2 0.7 238 11.1
2003-09-26 07:28:01 51°16.24 2°54.24 16.3 0.9 238 11.1
2003-09-26 07:29:01 51°16.23 2°54.22 14.3 1 234 11.2
2003-09-26 07:30:01 51°16.27 2°54.16 329.2 7.8 313 11.2
2003-09-26 07:31:01 51°16.4 2°53.95 325.1 13 311 11.4
2003-09-26 07:32:01 51°16.54 2°53.68 317.9 13.5 308 11.4
2003-09-26 07:33:01 51°16.68 2°53.41 319.1 13.4 309 11.1
2003-09-26 07:34:01 51°16.82 2°53.13 319.2 13.2 309 9.6
2003-09-26 07:35:01 51°16.96 2°52.88 323.9 12.7 314 8.6
2003-09-26 07:36:01 51°17.1 2°52.6 317.8 13.2 308 9
2003-09-26 07:37:01 51°17.24 2°52.35 328.3 13 319 9.6
2003-09-26 07:38:01 51°17.41 2°52.11 328.2 13.1 318 9.9
2003-09-26 07:39:01 51°17.57 2°51.88 328 13.1 318 9.7
2003-09-26 07:40:01 51°17.73 2°51.65 328.5 13 318 9.4
2003-09-26 07:41:01 51°17.9 2°51.43 334.6 13 323 10.1
2003-09-26 07:42:01 51°18.07 2°51.22 337.2 13.1 325 11.4
2003-09-26 07:43:01 51°18.25 2°51.04 343.5 11.1 330 12.6
2003-09-26 07:44:01 51°18.38 2°50.95 0.7 6.8 347 13.2
2003-09-26 07:45:01 51°18.46 2°50.95 36 3 28 13.5
2003-09-26 07:46:01 51°18.49 2°51 49.7 2.1 49 13.4
2003-09-26 07:47:01 51°18.49 2°51.01 30.7 0.5 252 13.6
2003-09-26 07:48:01 51°18.49 2°50.99 17.4 0.8 248 13.6
2003-09-26 07:49:01 51°18.48 2°50.97 12.8 0.9 237 13.7
2003-09-26 07:50:01 51°18.47 2°50.95 13.8 1 231 13.7
2003-09-26 07:51:01 51°18.46 2°50.93 14.5 0.8 243 13.7
2003-09-26 07:52:01 51°18.51 2°50.95 34.1 7.2 27 13.6
2003-09-26 07:53:01 51°18.64 2°51.11 43.5 11.3 39 13.8
2003-09-26 07:54:01 51°18.74 2°51.37 67.1 11.8 65 13.7
2003-09-26 07:55:01 51°18.83 2°51.64 64 11.9 61 13.8
2003-09-26 07:56:01 51°18.93 2°51.92 63.1 11.9 61 13.7
2003-09-26 07:57:01 51°19.03 2°52.19 62.2 11.8 59 13.5
2003-09-26 07:58:01 51°19.13 2°52.47 63.5 11.8 62 13.3
2003-09-26 07:59:01 51°19.2 2°52.76 72.1 11.8 70 13.1
2003-09-26 08:00:01 51°19.27 2°53.05 72.1 11.8 71 12.7
2003-09-26 08:01:01 51°19.33 2°53.34 70.6 11.8 69 12.5
2003-09-26 08:02:01 51°19.41 2°53.63 70.9 11.8 69 12.2
2003-09-26 08:03:01 51°19.47 2°53.93 71.8 11.8 70 12.1
2003-09-26 08:04:01 51°19.54 2°54.22 70 11.7 67 12.1
2003-09-26 08:05:01 51°19.62 2°54.51 70.8 11.8 69 12.2
2003-09-26 08:06:01 51°19.69 2°54.8 68.9 11.9 66 12.3
2003-09-26 08:07:01 51°19.74 2°55.1 76.4 11.9 76 12.2
2003-09-26 08:08:01 51°19.8 2°55.41 74.9 11.9 73 12
2003-09-26 08:09:01 51°19.85 2°55.71 74.4 11.8 74 12
2003-09-26 08:10:01 51°19.9 2°56.01 74.7 11.8 73 11.9
2003-09-26 08:11:01 51°19.96 2°56.32 75.4 11.9 74 11.7
2003-09-26 08:12:01 51°20.01 2°56.62 76.5 11.8 74 11.7
2003-09-26 08:13:01 51°20.07 2°56.93 75.4 12 73 11.5
2003-09-26 08:14:01 51°20.13 2°57.23 74.7 12.1 73 11.3
2003-09-26 08:15:01 51°20.18 2°57.54 75.4 12 73 11.3
2003-09-26 08:16:01 51°20.24 2°57.85 77 12 76 11.2
2003-09-26 08:17:01 51°20.29 2°58.15 75.7 11.9 74 11.1
2003-09-26 08:18:01 51°20.35 2°58.46 74.6 12 73 11
2003-09-26 08:19:01 51°20.4 2°58.76 75.4 12 74 10.9
2003-09-26 08:20:01 51°20.46 2°59.07 75.4 12 74 10.7
2003-09-26 08:21:01 51°20.51 2°59.37 76.7 12 74 10.6
2003-09-26 08:22:01 51°20.57 2°59.68 76.4 12 75 10.6
2003-09-26 08:23:01 51°20.63 2°59.99 75.9 12.1 74 10.5
2003-09-26 08:24:01 51°20.68 3°0.3 74.3 12.2 72 10.4
2003-09-26 08:25:01 51°20.74 3°0.61 74.5 12.2 73 10.4
2003-09-26 08:26:01 51°20.79 3°0.92 76.5 12.4 75 10.3
2003-09-26 08:27:01 51°20.84 3°1.24 77.7 12.3 77 10.1
2003-09-26 08:28:01 51°20.9 3°1.56 76.2 12.4 76 10.1
2003-09-26 08:29:01 51°20.95 3°1.88 75 12.3 74 10
2003-09-26 08:30:01 51°21.02 3°2.18 71.6 12.3 71 10.1
2003-09-26 08:31:01 51°21.08 3°2.5 72 12.3 71 10.2
2003-09-26 08:32:01 51°21.14 3°2.81 73 12.2 71 10.3
2003-09-26 08:33:01 51°21.21 3°3.11 71.2 12.2 69 10.4
2003-09-26 08:34:01 51°21.27 3°3.42 74.4 12.3 73 10.5
2003-09-26 08:35:01 51°21.33 3°3.74 73.5 12.4 72 10.5
2003-09-26 08:36:01 51°21.4 3°4.05 72.9 12.3 72 10.5
2003-09-26 08:37:01 51°21.46 3°4.35 73.3 12.3 73 10.5
2003-09-26 08:38:01 51°21.53 3°4.66 72.6 12.3 72 10.8
2003-09-26 08:39:01 51°21.59 3°4.98 73.3 12.3 71 10.8
2003-09-26 08:40:01 51°21.65 3°5.29 73.1 12.3 72 10.9
2003-09-26 08:41:01 51°21.72 3°5.6 72.5 12.3 72 10.9
2003-09-26 08:42:01 51°21.78 3°5.91 73.8 12.5 72 11.1
2003-09-26 08:43:01 51°21.85 3°6.22 72.7 12.4 71 11
2003-09-26 08:44:01 51°21.91 3°6.54 77.9 12.4 77 11.2
2003-09-26 08:45:01 51°21.95 3°6.87 80.8 12.6 80 11.5
2003-09-26 08:46:01 51°21.98 3°7.2 82 12.6 81 11.5
2003-09-26 08:47:01 51°22.02 3°7.53 80 12.6 80 11.7
2003-09-26 08:48:01 51°22.06 3°7.85 80.6 12.7 80 11.7
2003-09-26 08:49:01 51°22.1 3°8.18 81.2 12.8 80 11.8
2003-09-26 08:50:01 51°22.13 3°8.52 81.2 12.7 80 11.8
2003-09-26 08:51:01 51°22.17 3°8.85 80.5 12.8 79 12.1
2003-09-26 08:52:01 51°22.21 3°9.19 81.7 12.9 81 12.5
2003-09-26 08:53:01 51°22.24 3°9.53 82.2 12.9 80 13
2003-09-26 08:54:01 51°22.28 3°9.87 80.9 13 79 13.4
2003-09-26 08:55:01 51°22.32 3°10.2 80.2 12.7 78 14
2003-09-26 08:56:01 51°22.36 3°10.53 80.6 12.7 79 18.5
2003-09-26 08:57:01 51°22.38 3°10.87 89.8 12.7 89 15.7
2003-09-26 08:58:01 51°22.39 3°11.21 91.1 12.8 90 15.4
2003-09-26 08:59:01 51°22.39 3°11.55 88.7 12.9 88 15.4
2003-09-26 09:00:01 51°22.4 3°11.89 88.3 13 86 15.4
2003-09-26 09:01:01 51°22.41 3°12.24 89.1 13 86 14.6
2003-09-26 09:02:01 51°22.43 3°12.59 90.4 13.3 87 13.8
2003-09-26 09:03:01 51°22.44 3°12.93 87.3 11.8 84 13.1
2003-09-26 09:04:01 51°22.52 3°13.14 53.4 8.7 48 12.8
2003-09-26 09:05:01 51°22.6 3°13.24 28.5 3.4 23 12.5
2003-09-26 09:06:01 51°22.6 3°13.25 4.2 0.3 174 12.4
2003-09-26 09:07:01 51°22.6 3°13.25 7.9 0.1 135 12.4
2003-09-26 09:08:01 51°22.6 3°13.25 13.1 0.1 92 12.6
2003-09-26 09:09:01 51°22.6 3°13.26 13.6 0.2 64 12.5
2003-09-26 09:10:01 51°22.6 3°13.26 8.9 0.7 10 12.5
2003-09-26 09:11:01 51°22.69 3°13.32 34.8 10.6 30 12
2003-09-26 09:12:01 51°22.85 3°13.52 46.4 12.8 40 11.2
2003-09-26 09:13:01 51°23.02 3°13.74 44.3 13 38 10.8
2003-09-26 09:14:01 51°23.18 3°13.97 47.2 12.9 41 10.6
2003-09-26 09:15:01 51°23.34 3°14.2 47.7 13 42 11.1
2003-09-26 09:16:01 51°23.5 3°14.43 48.1 13.1 43 11.2
2003-09-26 09:17:01 51°23.66 3°14.67 47.1 13.1 42 11.6
2003-09-26 09:18:01 51°23.82 3°14.9 48.1 13.3 43 11.7
2003-09-26 09:19:01 51°23.98 3°15.14 47.8 13.3 43 12.2
2003-09-26 09:20:01 51°24.14 3°15.38 47.5 13.4 43 11.2
2003-09-26 09:21:01 51°24.31 3°15.63 46.4 13.6 42 14.4
2003-09-26 09:22:01 51°24.47 3°15.88 46.3 13.6 43 18.1
2003-09-26 09:23:01 51°24.64 3°16.12 46.4 13.7 42 18.6
2003-09-26 09:24:01 51°24.8 3°16.37 46.9 13.6 43 14.1
2003-09-26 09:25:01 51°24.97 3°16.63 46.5 13.7 44 14
2003-09-26 09:26:01 51°25.13 3°16.88 48.6 13.6 46 12.7
2003-09-26 09:27:01 51°25.28 3°17.15 50.3 13.4 49 10.8
2003-09-26 09:28:01 51°25.42 3°17.42 50.5 13.3 49 9.7
2003-09-26 09:29:01 51°25.57 3°17.69 49.6 13.4 47 9.8
2003-09-26 09:30:01 51°25.71 3°17.94 49.4 11.6 47 9.5
2003-09-26 09:31:01 51°25.85 3°18.02 355.3 7.8 351 9.3
2003-09-26 09:32:01 51°25.95 3°17.94 327.2 5.4 322 9
2003-09-26 09:33:01 51°25.98 3°17.86 298 2.8 283 9
2003-09-26 09:34:01 51°25.96 3°17.79 242 3.1 221 9
2003-09-26 09:35:01 51°25.91 3°17.77 195.6 2.6 176 8.9
2003-09-26 09:36:01 51°25.89 3°17.79 186.6 1.3 145 9.1
2003-09-26 09:37:01 51°25.88 3°17.81 172.1 1.4 141 9.1
2003-09-26 09:38:01 51°25.86 3°17.83 168 1.4 143 9.2
2003-09-26 09:39:01 51°25.84 3°17.86 172.1 1.4 142 9.3
2003-09-26 09:40:01 51°25.8 3°17.87 199.1 3.7 183 9.4
2003-09-26 09:41:01 51°25.72 3°17.77 246.5 9.1 238 9.5
2003-09-26 09:42:01 51°25.66 3°17.52 263.5 9.7 254 9.6
2003-09-26 09:43:01 51°25.62 3°17.27 261.5 9.6 253 9.6
2003-09-26 09:44:01 51°25.58 3°17.03 269.4 9.4 261 9.6
2003-09-26 09:45:01 51°25.55 3°16.78 268.4 9.5 259 9.6
2003-09-26 09:46:01 51°25.52 3°16.53 268.3 9.5 259 9.5
2003-09-26 09:47:01 51°25.5 3°16.28 267.8 9.5 258 9.6
2003-09-26 09:48:01 51°25.46 3°16.04 269.7 9.5 261 9.8
2003-09-26 09:49:01 51°25.44 3°15.79 269.4 9.5 260 9.8
2003-09-26 09:50:01 51°25.42 3°15.54 275 9.4 265 10
2003-09-26 09:51:01 51°25.4 3°15.29 273.1 9.4 264 10.2
2003-09-26 09:52:01 51°25.39 3°15.04 272.5 9.4 263 10.3
2003-09-26 09:53:01 51°25.37 3°14.79 274.4 9.4 264 10.7
2003-09-26 09:53:59 51°25.35 3°14.55 273.8 9.4 265 10.8
2003-09-26 09:55:01 51°25.34 3°14.29 274.3 9.4 265 10.8
2003-09-26 09:56:01 51°25.33 3°14.04 276 9.3 267 11.1
2003-09-26 09:57:01 51°25.32 3°13.8 274.8 9.4 265 11.2
2003-09-26 09:58:01 51°25.31 3°13.55 274.8 9.4 266 11.1
2003-09-26 09:59:01 51°25.3 3°13.3 276.2 9.3 267 11.2
2003-09-26 10:00:01 51°25.29 3°13.05 274 9.3 265 11.1
2003-09-26 10:01:01 51°25.28 3°12.8 276.3 9.3 268 11
2003-09-26 10:01:59 51°25.27 3°12.56 274.9 9.3 266 11
2003-09-26 10:03:01 51°25.26 3°12.31 275 9.2 266 10.8
2003-09-26 10:04:01 51°25.28 3°12.08 306.7 8.8 299 10.6
2003-09-26 10:05:01 51°25.37 3°11.89 315.8 8.9 308 10.6
2003-09-26 10:06:01 51°25.46 3°11.7 314.7 8.9 307 10.2
2003-09-26 10:07:01 51°25.55 3°11.51 314.7 8.8 306 9.4
2003-09-26 10:08:01 51°25.63 3°11.32 315.1 8.7 306 8.8
2003-09-26 10:09:01 51°25.72 3°11.13 315.1 8.7 306 8.3
2003-09-26 10:10:01 51°25.8 3°10.95 315.6 8.6 307 8.2
2003-09-26 10:11:01 51°25.89 3°10.76 314.9 8.6 306 8.4
2003-09-26 10:12:01 51°25.95 3°10.55 299.2 8.8 288 8.7
2003-09-26 10:13:01 51°25.99 3°10.33 300.3 8.8 290 8.7
2003-09-26 10:14:01 51°26.04 3°10.11 300 8.9 289 8.9
2003-09-26 10:15:01 51°26.09 3°9.88 299.1 8.9 288 9.2
2003-09-26 10:16:01 51°26.14 3°9.66 299.6 8.8 289 9.3
2003-09-26 10:17:01 51°26.19 3°9.44 300.6 8.9 290 9.3
2003-09-26 10:18:01 51°26.24 3°9.21 300.4 9 291 10.2
2003-09-26 10:19:01 51°26.29 3°8.99 299.6 9 290 10.4
2003-09-26 10:20:01 51°26.33 3°8.76 298.1 9 287 10.8
2003-09-26 10:21:01 51°26.38 3°8.53 303.3 9 292 11.4
2003-09-26 10:22:01 51°26.44 3°8.35 306 5.3 290 11.8
2003-09-26 10:23:01 51°26.44 3°8.3 298.4 0.8 191 11.5
2003-09-26 10:24:01 51°26.42 3°8.3 316.7 0.8 166 11.4
2003-09-26 10:25:01 51°26.41 3°8.31 341.6 0.8 149 11.6
2003-09-26 10:26:01 51°26.4 3°8.32 351.6 0.9 143 11.4
2003-09-26 10:27:01 51°26.39 3°8.33 346.8 0.9 152 11.5
2003-09-26 10:28:01 51°26.37 3°8.34 341.8 0.8 157 11.3
2003-09-26 10:29:03 51°26.36 3°8.36 335.8 0.9 151 11.3
2003-09-26 10:30:01 51°26.36 3°8.33 303.3 5.4 289 11.2
2003-09-26 10:31:01 51°26.42 3°8.07 298.3 12.3 291 11.2
2003-09-26 10:32:01 51°26.51 3°7.76 301.9 12.7 295 11.5
2003-09-26 10:33:01 51°26.61 3°7.46 306.1 12.7 299 11.6
2003-09-26 10:34:01 51°26.71 3°7.17 307.5 12.7 301 12.3
2003-09-26 10:35:01 51°26.82 3°6.88 308.6 12.6 301 12.8
2003-09-26 10:36:01 51°26.93 3°6.59 308.4 12.6 301 13.2
2003-09-26 10:37:01 51°27.03 3°6.3 307.9 12.6 301 13.6
2003-09-26 10:38:01 51°27.15 3°6.02 310.9 12.6 304 14.1
2003-09-26 10:39:01 51°27.27 3°5.73 310.9 12.6 304 14.8
2003-09-26 10:40:01 51°27.38 3°5.45 310.5 12.6 304 15.3
2003-09-26 10:41:01 51°27.5 3°5.17 310.6 12.7 304 15.6
2003-09-26 10:42:01 51°27.62 3°4.89 309.9 12.7 303 15.3
2003-09-26 10:43:01 51°27.74 3°4.62 312.1 12.7 305 15.3
2003-09-26 10:44:01 51°27.86 3°4.34 312.7 12.7 306 17.5
2003-09-26 10:45:01 51°27.99 3°4.06 312.5 12.8 307 19.7
2003-09-26 10:46:01 51°28.12 3°3.79 312.6 12.8 307 21.5
2003-09-26 10:47:01 51°28.24 3°3.57 328 7.7 325 23.4
2003-09-26 10:48:01 51°28.31 3°3.53 356.9 1.3 8 24.2
2003-09-26 10:49:03 51°28.31 3°3.54 19.4 0.6 127 -999
2003-09-26 10:50:03 51°28.3 3°3.56 24 0.8 105 -999
2003-09-26 10:51:01 51°28.3 3°3.58 22.6 0.8 94 24
2003-09-26 10:52:03 51°28.3 3°3.6 11.8 0.8 89 24
2003-09-26 10:53:01 51°28.3 3°3.62 1.7 0.7 92 24
2003-09-26 10:54:01 51°28.3 3°3.65 353.1 0.8 94 23.8
2003-09-26 10:55:01 51°28.32 3°3.63 317.3 5.8 306 23.9
2003-09-26 10:55:59 51°28.33 3°3.43 259.8 9.8 252 24.5
2003-09-26 10:57:01 51°28.25 3°3.17 248.9 11.1 243 24.8
2003-09-26 10:58:01 51°28.16 3°2.86 250.4 13.3 245 25.1
2003-09-26 10:59:01 51°28.08 3°2.53 257.3 13.3 252 25.8
2003-09-26 11:00:01 51°28.01 3°2.19 256.8 13.4 251 25.7
2003-09-26 11:01:01 51°27.94 3°1.86 257.4 13.4 252 25.7
2003-09-26 11:02:01 51°27.86 3°1.52 256 13.4 250 25.6
2003-09-26 11:03:01 51°27.79 3°1.18 259.4 13.2 254 25.6
2003-09-26 11:04:01 51°27.73 3°0.85 259.9 13.3 254 25.6
2003-09-26 11:05:01 51°27.67 3°0.5 261.2 13.1 256 23.7
2003-09-26 11:06:03 51°27.61 3°0.15 261.5 13.2 256 22.6
2003-09-26 11:07:01 51°27.56 2°59.83 261.4 13.1 255 20.9
2003-09-26 11:08:01 51°27.51 2°59.49 261.9 13.1 256 22.6
2003-09-26 11:09:03 51°27.45 2°59.14 261.5 13 255 21.7
2003-09-26 11:10:01 51°27.4 2°58.81 260.9 13 255 18.5
2003-09-26 11:11:01 51°27.35 2°58.48 261.2 13 256 17.7
2003-09-26 11:12:01 51°27.29 2°58.14 260.9 12.9 255 18.6
2003-09-26 11:13:03 51°27.24 2°57.8 261.2 12.9 256 22.8
2003-09-26 11:14:03 51°27.18 2°57.46 261.2 12.9 256 25.2
2003-09-26 11:15:01 51°27.14 2°57.14 261.2 12.8 256 26.4
2003-09-26 11:16:03 51°27.09 2°56.8 261.2 12.6 257 21.2
2003-09-26 11:17:03 51°27.04 2°56.48 260.8 12.6 257 26.9
2003-09-26 11:18:01 51°26.99 2°56.16 262.1 12.8 259 30.4
2003-09-26 11:19:01 51°26.95 2°55.82 260.8 12.8 257 31.7
2003-09-26 11:20:03 51°26.9 2°55.48 261 12.7 257 31.1
2003-09-26 11:21:01 51°26.86 2°55.16 261.4 12.6 259 28.8
2003-09-26 11:22:03 51°26.81 2°54.82 261.2 12.6 258 28.9
2003-09-26 11:23:01 51°26.77 2°54.51 260.9 12.4 259 26.2
2003-09-26 11:24:03 51°26.73 2°54.18 261.6 12.4 258 32.9
2003-09-26 11:25:01 51°26.69 2°53.86 260.5 12.5 258 34
2003-09-26 11:26:01 51°26.65 2°53.54 261.2 12.4 258 34
2003-09-26 11:27:01 51°26.6 2°53.22 261.3 12.4 258 33.7
2003-09-26 11:28:01 51°26.56 2°52.9 261.1 12.3 257 31.6
2003-09-26 11:29:01 51°26.52 2°52.58 260.6 12.3 257 30.4
2003-09-26 11:30:01 51°26.48 2°52.25 262 12.2 259 29.3
2003-09-26 11:31:01 51°26.44 2°51.94 262 12.2 259 28
2003-09-26 11:32:01 51°26.4 2°51.62 260.4 12.2 258 28.4
2003-09-26 11:33:03 51°26.35 2°51.29 261 12.2 258 29.7
2003-09-26 11:34:01 51°26.31 2°50.99 261.4 12 259 26.1
2003-09-26 11:35:01 51°26.27 2°50.67 261.5 12 259 26.4
2003-09-26 11:36:01 51°26.23 2°50.36 261 12 259 26.3
2003-09-26 11:37:01 51°26.19 2°50.05 261.4 11.9 259 26.4
2003-09-26 11:38:01 51°26.16 2°49.73 260.6 12.1 259 26
2003-09-26 11:39:01 51°26.12 2°49.41 261.4 12.1 260 26.2
2003-09-26 11:40:03 51°26.08 2°49.09 261.8 12.1 260 26.7
2003-09-26 11:41:03 51°26.05 2°48.86 260.5 7.5 259 26.5
2003-09-26 11:42:01 51°26.03 2°48.69 263.1 5.5 265 26.8
2003-09-26 11:43:01 51°26.02 2°48.59 247.7 2.7 242 27.1
2003-09-26 11:44:03 51°26 2°48.54 243.7 2.1 231 26.4
2003-09-26 11:45:01 51°25.99 2°48.53 249.6 1 75 26.8
2003-09-26 11:46:01 51°26 2°48.56 250.6 1.4 71 26.8
2003-09-26 11:47:01 51°26.01 2°48.6 244.1 1.7 72 26.9
2003-09-26 11:48:01 51°26.01 2°48.65 223.8 1.9 76 26.9
2003-09-26 11:49:01 51°26.02 2°48.7 203.4 2.2 78 26.7
2003-09-26 11:50:01 51°26 2°48.73 211.8 4.9 197 26.5
2003-09-26 11:51:01 51°25.92 2°48.55 246.1 10.7 244 26.7
2003-09-26 11:52:01 51°25.84 2°48.28 250.1 11.8 248 26.7
2003-09-26 11:53:01 51°25.77 2°47.98 250.9 11.7 249 26.6
2003-09-26 11:54:01 51°25.7 2°47.69 250.7 11.8 249 28
2003-09-26 11:55:01 51°25.63 2°47.39 251.8 11.8 249 28
2003-09-26 11:56:03 51°25.56 2°47.09 250.8 11.8 249 28.1
2003-09-26 11:57:03 51°25.49 2°46.8 250.9 11.9 249 27.2
2003-09-26 11:58:03 51°25.42 2°46.5 251.4 11.7 250 28.3
2003-09-26 11:59:03 51°25.35 2°46.22 251.4 11.5 251 26.6
2003-09-26 12:00:03 51°25.28 2°45.93 250.7 11.6 250 28.7
2003-09-26 12:01:03 51°25.22 2°45.64 251.5 11.7 250 28.6
2003-09-26 12:02:01 51°25.15 2°45.36 251.7 11.7 250 28.5
2003-09-26 12:03:01 51°25.08 2°45.06 251.8 11.8 250 25.9
2003-09-26 12:04:03 51°25.01 2°44.76 251.6 11.8 250 26
2003-09-26 12:05:03 51°24.94 2°44.47 250.8 11.8 248 28.8
2003-09-26 12:06:01 51°24.87 2°44.18 251.5 11.8 249 25
2003-09-26 12:07:01 51°24.8 2°43.89 252.2 11.6 250 27.4
2003-09-26 12:08:01 51°24.73 2°43.6 252.4 11.8 250 25.1
2003-09-26 12:09:01 51°24.67 2°43.31 251.7 11.8 249 23.6
2003-09-26 12:10:03 51°24.59 2°43 250.4 11.8 249 26.9
2003-09-26 12:11:03 51°24.53 2°42.71 251.1 11.6 249 25.7
2003-09-26 12:12:01 51°24.46 2°42.43 250.3 11.6 248 27.1
2003-09-26 12:13:03 51°24.39 2°42.13 251.5 11.7 251 28.9
2003-09-26 12:14:01 51°24.33 2°41.85 252.3 11.6 252 25.1
2003-09-26 12:15:03 51°24.26 2°41.55 250.8 11.7 250 31.3
2003-09-26 12:16:01 51°24.2 2°41.27 250.8 11.6 251 32
2003-09-26 12:17:01 51°24.13 2°40.98 250.8 11.7 250 31.3
2003-09-26 12:18:03 51°24.06 2°40.67 251.2 11.9 251 31.6
2003-09-26 12:19:01 51°24 2°40.39 251.3 11.7 250 29
2003-09-26 12:20:01 51°23.93 2°40.09 251.4 11.9 251 31.2
2003-09-26 12:21:01 51°23.86 2°39.79 251.8 12 251 29.1
2003-09-26 12:22:01 51°23.79 2°39.5 249 11.9 247 29.2
2003-09-26 12:23:03 51°23.7 2°39.2 248.2 11.8 247 30
2003-09-26 12:24:01 51°23.63 2°38.92 247.5 11.9 246 30.1
2003-09-26 12:25:01 51°23.55 2°38.63 248.6 11.8 247 30.6
2003-09-26 12:26:01 51°23.47 2°38.35 248.9 11.8 247 28.6
2003-09-26 12:27:01 51°23.39 2°38.06 247.5 11.9 245 28.4
2003-09-26 12:28:03 51°23.31 2°37.76 245.5 12 244 25.3
2003-09-26 12:29:01 51°23.22 2°37.49 243.4 12 240 29.5
2003-09-26 12:30:01 51°23.12 2°37.21 244.5 11.8 242 27.8
2003-09-26 12:31:01 51°23.02 2°36.94 241.8 11.7 239 27.8
2003-09-26 12:32:01 51°22.92 2°36.67 242.7 11.9 239 29.6
2003-09-26 12:33:03 51°22.81 2°36.4 241.7 11.7 238 31.2
2003-09-26 12:34:01 51°22.72 2°36.14 242.5 11.7 240 28.1
2003-09-26 12:35:01 51°22.62 2°35.87 241.8 11.6 239 29.1
2003-09-26 12:36:01 51°22.52 2°35.61 241.8 11.7 239 31.4
2003-09-26 12:37:01 51°22.42 2°35.34 242.5 11.6 240 31
2003-09-26 12:38:01 51°22.32 2°35.07 242.7 11.7 241 29.5
2003-09-26 12:39:01 51°22.23 2°34.81 241.7 11.5 240 31.2
2003-09-26 12:40:03 51°22.12 2°34.54 239.5 11.6 237 31.6
2003-09-26 12:41:03 51°22.02 2°34.28 239.5 11.7 236 31.1
2003-09-26 12:42:01 51°21.92 2°34.02 240.1 11.8 237 29.3
2003-09-26 12:43:03 51°21.81 2°33.75 239.8 11.9 238 29.8
2003-09-26 12:44:03 51°21.7 2°33.48 239.8 11.9 238 28.4
2003-09-26 12:45:03 51°21.6 2°33.21 240.3 11.9 237 27.7
2003-09-26 12:46:03 51°21.49 2°32.94 240.5 11.9 236 27.2
2003-09-26 12:47:03 51°21.38 2°32.68 240 12 238 24.5
2003-09-26 12:48:01 51°21.28 2°32.42 240.2 11.9 237 23.3
2003-09-26 12:49:01 51°21.17 2°32.16 237.1 11.8 233 21.8
2003-09-26 12:50:03 51°21.04 2°31.9 237.2 11.7 233 17
2003-09-26 12:51:01 51°20.93 2°31.66 237.7 11.6 232 16.5
2003-09-26 12:52:01 51°20.81 2°31.42 236.4 11.5 231 16.6
2003-09-26 12:53:01 51°20.69 2°31.19 236.9 11.5 231 14.7
2003-09-26 12:54:01 51°20.57 2°30.95 237.8 11.6 232 15.5
2003-09-26 12:55:03 51°20.45 2°30.71 238 11.4 231 16.2
2003-09-26 12:56:03 51°20.33 2°30.48 237.3 11.2 231 14.8
2003-09-26 12:57:01 51°20.24 2°30.32 240.5 6.1 232 16.4
2003-09-26 12:58:01 51°20.18 2°30.21 235.3 6.5 225 16.3
2003-09-26 12:59:01 51°20.08 2°30.06 231.1 8.2 223 16.7
2003-09-26 13:00:01 51°20.04 2°29.97 264.1 0.6 56 15
2003-09-26 13:01:03 51°20.05 2°30.01 304 1.8 53 18.1
2003-09-26 13:02:03 51°20.07 2°30.06 326.7 2.7 58 16.2
2003-09-26 13:03:03 51°20.09 2°30.12 348.2 3 62 15.3
2003-09-26 13:04:01 51°20.12 2°30.19 0.4 2.9 59 17
2003-09-26 13:05:03 51°20.17 2°30.28 39.2 7.4 49 16.2
2003-09-26 13:06:01 51°20.17 2°30.52 134.2 12.3 122 15
2003-09-26 13:07:01 51°20.03 2°30.83 136.7 14.5 128 21.3
2003-09-26 13:08:01 51°19.89 2°31.13 139.8 14.3 131 26.7
2003-09-26 13:09:01 51°19.73 2°31.42 138.9 14.1 131 33.3
2003-09-26 13:10:01 51°19.58 2°31.71 138.9 14 129 33.4
2003-09-26 13:11:03 51°19.43 2°32 138.8 13.9 128 33.5
2003-09-26 13:12:01 51°19.29 2°32.28 139.6 14 128 33.1
2003-09-26 13:13:01 51°19.15 2°32.58 137.9 14 127 32.8
2003-09-26 13:14:03 51°19 2°32.88 140.7 13.9 129 32.4
2003-09-26 13:15:01 51°18.87 2°33.16 140.3 14 128 30.8
2003-09-26 13:16:01 51°18.72 2°33.45 138.6 13.9 128 24.8
2003-09-26 13:17:03 51°18.58 2°33.75 138.4 14 129 20.4
2003-09-26 13:18:01 51°18.44 2°34.04 139.6 14.1 128 22.2
2003-09-26 13:19:01 51°18.29 2°34.33 139.4 14.1 129 30.1
2003-09-26 13:20:03 51°18.12 2°34.61 146.2 14.2 134 30.4
2003-09-26 13:21:04 51°17.96 2°34.89 143.6 14 132 29.5
2003-09-26 13:22:02 51°17.81 2°35.15 145.3 14.1 131 19.9
2003-09-26 13:23:02 51°17.64 2°35.42 144.8 14.3 135 17
2003-09-26 13:24:04 51°17.47 2°35.69 142.4 14.4 133 14.7
2003-09-26 13:25:04 51°17.3 2°35.95 147 13.9 139 20
2003-09-26 13:26:02 51°17.13 2°36.19 145.8 13.9 137 26.6
2003-09-26 13:27:01 51°16.97 2°36.45 146.6 14 135 29.8
2003-09-26 13:28:04 51°16.8 2°36.68 159.7 9.8 149 29.5
2003-09-26 13:29:04 51°16.69 2°36.75 194.3 5.3 181 29
2003-09-26 13:30:04 51°16.65 2°36.73 232.6 0.6 169 29.2
2003-09-26 13:31:04 51°16.65 2°36.74 238.6 0.6 94 29
2003-09-26 13:32:02 51°16.65 2°36.77 235.6 1.1 76 29.2
2003-09-26 13:33:03 51°16.66 2°36.8 233.2 1.5 73 29.3
2003-09-26 13:34:04 51°16.67 2°36.85 225.4 1.9 73 29.6
2003-09-26 13:35:02 51°16.68 2°36.89 212.7 2 70 29.3
2003-09-26 13:36:01 51°16.69 2°36.95 196.6 2.2 71 29.1
2003-09-26 13:37:04 51°16.7 2°37.01 184.5 2.3 70 29.1
2003-09-26 13:38:02 51°16.71 2°37.06 177 2.4 72 29.2
2003-09-26 13:39:02 51°16.73 2°37.12 174.6 2.3 71 29.5
2003-09-26 13:40:01 51°16.74 2°37.18 174 2.3 73 29.2
2003-09-26 13:41:02 51°16.74 2°37.24 167.1 2.3 79 29.3
2003-09-26 13:42:03 51°16.73 2°37.33 144.6 5.9 126 29.4
2003-09-26 13:43:03 51°16.66 2°37.28 258.3 6 267 29.6
2003-09-26 13:44:03 51°16.65 2°37.11 257.5 7.8 260 29
2003-09-26 13:45:05 51°16.61 2°36.88 262.2 9.4 262 29.1
2003-09-26 13:46:07 51°16.59 2°36.79 208.7 1.1 99 29.2
2003-09-26 13:47:05 51°16.59 2°36.84 170.5 2.2 90 28.9
2003-09-26 13:48:05 51°16.59 2°36.9 174 2.1 86 29.4
2003-09-26 13:49:05 51°16.6 2°36.95 183.4 2.2 72 29.5
2003-09-26 13:50:05 51°16.61 2°37.01 191 2.1 73 29.4
2003-09-26 13:51:05 51°16.62 2°37.06 184.5 2.1 112 28.9
2003-09-26 13:52:07 51°16.54 2°37.13 167.9 9.4 151 29.1
2003-09-26 13:53:05 51°16.37 2°37.28 163.7 12.8 153 28.2
2003-09-26 13:54:05 51°16.18 2°37.44 164.4 12.7 155 16.2
2003-09-26 13:55:05 51°15.98 2°37.57 164.8 12.8 156 12.4
2003-09-26 13:56:03 51°15.79 2°37.71 166 13.1 156 13
2003-09-26 13:57:05 51°15.58 2°37.86 165.6 13.3 157 13.1
2003-09-26 13:58:07 51°15.37 2°38.01 164.7 13.3 156 13.3
2003-09-26 13:59:03 51°15.18 2°38.14 165.1 13.4 157 14.8
2003-09-26 14:00:07 51°14.97 2°38.29 165.2 13.4 157 17.9
2003-09-26 14:01:05 51°14.77 2°38.42 164.7 13.3 156 19.1
2003-09-26 14:02:07 51°14.56 2°38.57 164.7 13.1 155 19.6
2003-09-26 14:03:07 51°14.36 2°38.71 166.5 13.3 157 20.3
2003-09-26 14:04:07 51°14.16 2°38.83 169.5 12.9 164 14.2
2003-09-26 14:05:07 51°13.94 2°38.82 196.6 12.7 192 15.2
2003-09-26 14:06:07 51°13.74 2°38.74 202.9 12.7 197 16.5
2003-09-26 14:07:05 51°13.54 2°38.65 201.9 12.6 197 17.1
2003-09-26 14:08:07 51°13.33 2°38.56 200.5 12.6 195 16.8
2003-09-26 14:09:07 51°13.13 2°38.48 200.7 12.7 195 16.7
2003-09-26 14:10:05 51°12.93 2°38.39 201.1 12.6 196 16
2003-09-26 14:11:07 51°12.73 2°38.28 204.4 12.4 198 15.6
2003-09-26 14:12:07 51°12.53 2°38.17 205.2 12.5 200 15.6
2003-09-26 14:13:07 51°12.34 2°38.06 207 12.5 202 15.8
2003-09-26 14:14:05 51°12.15 2°37.95 205.9 12.4 200 16.1
2003-09-26 14:15:07 51°11.95 2°37.82 206.4 12.5 201 16.1
2003-09-26 14:16:05 51°11.77 2°37.71 207.2 12.5 201 16.4
2003-09-26 14:17:07 51°11.57 2°37.58 206.5 12.5 200 16.2
2003-09-26 14:18:07 51°11.38 2°37.47 206.6 12.3 202 15.8
2003-09-26 14:19:07 51°11.18 2°37.34 206.1 12.6 202 14.7
2003-09-26 14:20:07 51°11 2°37.2 210.4 12.4 206 13.4
2003-09-26 14:21:07 51°10.81 2°37.05 210.1 12.5 206 12.4
2003-09-26 14:22:07 51°10.62 2°36.92 203.3 12.2 197 10.8
2003-09-26 14:23:05 51°10.43 2°36.86 182.9 12.7 174 14.3
2003-09-26 14:24:05 51°10.23 2°36.99 159.9 13.4 148 20.1
2003-09-26 14:25:05 51°10.1 2°37.28 109.4 14 100 19.8
2003-09-26 14:26:07 51°10.14 2°37.67 74.7 14.7 68 19.4
2003-09-26 14:27:05 51°10.24 2°38.01 69 14.7 65 18.8
2003-09-26 14:28:07 51°10.34 2°38.38 73.1 14.7 68 18.4
2003-09-26 14:29:05 51°10.43 2°38.74 74 14.8 69 18.5
2003-09-26 14:30:07 51°10.52 2°39.11 73.6 14.8 69 17.6
2003-09-26 14:31:07 51°10.6 2°39.48 74.7 14.8 69 16.9
2003-09-26 14:32:07 51°10.69 2°39.85 73.8 14.9 69 16.7
2003-09-26 14:33:07 51°10.78 2°40.21 74 14.8 69 16
2003-09-26 14:34:07 51°10.86 2°40.58 77.7 14.8 73 15.3
2003-09-26 14:35:07 51°10.94 2°40.96 77.3 14.8 72 14.8
2003-09-26 14:36:07 51°11.01 2°41.33 82.1 14.7 77 14.4
2003-09-26 14:37:07 51°11.06 2°41.71 82.7 14.8 77 14.2
2003-09-26 14:38:07 51°11.09 2°41.98 100.8 7.4 92 14.3
2003-09-26 14:39:07 51°11.09 2°42.06 116.9 1 15 -999
2003-09-26 14:40:07 51°11.1 2°42.08 128.7 1.3 33 14.4
2003-09-26 14:41:07 51°11.12 2°42.11 130.5 1.4 52 14.4
2003-09-26 14:42:07 51°11.13 2°42.14 129.4 1.5 64 14.4
2003-09-26 14:43:07 51°11.14 2°42.18 135.7 1.6 74 14.3
2003-09-26 14:44:08 51°11.11 2°42.34 110.4 10.2 103 14.5
2003-09-26 14:45:06 51°11.13 2°42.67 84.3 14.6 80 14.6
2003-09-26 14:46:08 51°11.19 2°43.06 74 14.7 68 14.6
2003-09-26 14:47:08 51°11.28 2°43.42 75 14.5 70 14.6
2003-09-26 14:48:06 51°11.36 2°43.77 75 14.5 70 14.7
2003-09-26 14:49:06 51°11.43 2°44.13 75.5 14.5 71 14.7
2003-09-26 14:50:06 51°11.51 2°44.49 76.2 14.5 71 14.8
2003-09-26 14:51:06 51°11.59 2°44.86 76.4 14.4 72 14.8
2003-09-26 14:52:08 51°11.67 2°45.23 75.5 14.4 72 14.7
2003-09-26 14:53:08 51°11.74 2°45.59 75.9 14.3 72 14.9
2003-09-26 14:54:08 51°11.82 2°45.96 77.3 14.5 72 14.8
2003-09-26 14:55:08 51°11.9 2°46.32 77.2 14.6 72 14.8
2003-09-26 14:56:06 51°11.97 2°46.68 76.3 14.7 71 14.6
2003-09-26 14:57:08 51°12.07 2°47.05 70.7 14.6 66 14.6
2003-09-26 14:58:08 51°12.17 2°47.4 69.6 14.5 64 14.5
2003-09-26 14:59:08 51°12.27 2°47.74 70.1 14.4 64 14.4
2003-09-26 15:00:08 51°12.37 2°48.09 70.8 14.4 64 14.1
2003-09-26 15:01:08 51°12.47 2°48.43 70.8 14.5 65 14
2003-09-26 15:02:06 51°12.57 2°48.77 70 14.6 65 13.9
2003-09-26 15:03:06 51°12.68 2°49.12 70.2 14.4 65 13.6
2003-09-26 15:04:06 51°12.78 2°49.47 69.6 14.5 64 13.2
2003-09-26 15:05:08 51°12.88 2°49.83 70.1 14.5 66 13.1
2003-09-26 15:06:06 51°12.98 2°50.16 70 14.4 64 13.1
2003-09-26 15:07:06 51°13.08 2°50.5 68.9 14.4 64 12.8
2003-09-26 15:08:08 51°13.19 2°50.86 68.9 14.4 63 12.5
2003-09-26 15:09:08 51°13.3 2°51.2 68.2 14.2 63 12.2
2003-09-26 15:10:08 51°13.41 2°51.53 64.9 14.3 61 12.1
2003-09-26 15:11:06 51°13.53 2°51.85 64.4 14.3 61 12
2003-09-26 15:12:08 51°13.65 2°52.19 65.5 14.3 61 12.1
2003-09-26 15:13:08 51°13.77 2°52.52 65.7 14.3 61 11.9
2003-09-26 15:14:06 51°13.87 2°52.84 68 14.3 63 11.6
2003-09-26 15:15:08 51°13.98 2°53.17 67.7 11.3 63 11.4
2003-09-26 15:16:08 51°14.05 2°53.38 66.8 8 61 11.2
2003-09-26 15:17:08 51°14.1 2°53.56 66.2 7 62 11.1
2003-09-26 15:18:06 51°14.15 2°53.7 66 5.5 62 10.9
2003-09-26 15:19:06 51°14.19 2°53.82 65.6 4.9 62 10.9
2003-09-26 15:20:08 51°14.23 2°53.93 65.8 4.7 62 10.7
2003-09-26 15:21:08 51°14.26 2°54.04 69.3 4.6 65 10.6
2003-09-26 15:22:08 51°14.3 2°54.15 71.8 4.6 65 10.7
2003-09-26 15:23:08 51°14.33 2°54.3 71.9 8.4 66 10.8
2003-09-26 15:24:08 51°14.37 2°54.57 91.1 11.6 88 11.2
2003-09-26 15:25:06 51°14.38 2°54.87 93.6 11.7 90 11.5
2003-09-26 15:26:06 51°14.32 2°55.16 125.8 10.9 125 12.7
2003-09-26 15:27:06 51°14.22 2°55.33 145.3 7.5 144 12.2